Ajuricaba, Brazil
Current Conditions -  °F | °C
As of 5:00 PM on Monday 20 Oct 2014 (Local Time) from SBPF Reporting Station
Clear Clear  
Wind Chill: 72°   Ceiling: Unl
Heat Index: 72°   Visibility: 6mi
Dew Point: 59°   Wind: 12mph
Humidity: 64%   Direction: 180°S
Pressure: 30.09"   Gusts: NA
Location:  28.24°S, 53.77°W
Report Text: SBPF 202000Z 18010KT CAVOK 22/15 Q1019
Loading
Personal Weather Stations






























Interactive Weather Map
Tropical Storm Tracking
New forecast layout! Learn more

10-Day Weather Forecast

Advertisements
Track Severe Weather on mobile